createdAt,value
2022-09-09T00:00:18.645Z,100.00
2022-09-09T00:03:14.241Z,100.00
2022-09-09T00:05:48.673Z,100.00
2022-09-09T00:08:22.461Z,100.00
2022-09-09T00:10:56.361Z,100.00
2022-09-09T00:13:30.132Z,100.00
2022-09-09T00:16:06.034Z,100.00
2022-09-09T00:18:49.394Z,100.00
2022-09-09T00:21:18.512Z,100.00
2022-09-09T00:23:52.483Z,100.00
2022-09-09T00:26:28.252Z,100.00
2022-09-09T00:29:03.677Z,100.00
2022-09-09T00:31:34.008Z,100.00
2022-09-09T00:34:12.026Z,100.00
2022-09-09T00:36:40.824Z,100.00
2022-09-09T00:39:15.352Z,100.00
2022-09-09T00:42:01.220Z,100.00
2022-09-09T00:44:35.550Z,100.00
2022-09-09T00:47:31.959Z,100.00
2022-09-09T00:50:03.611Z,100.00
2022-09-09T00:52:41.697Z,100.00
2022-09-09T00:55:17.425Z,100.00
2022-09-09T00:57:47.192Z,100.00
2022-09-09T01:00:22.189Z,100.00
2022-09-09T01:03:03.227Z,100.00
2022-09-09T01:05:38.637Z,100.00
2022-09-09T01:08:17.889Z,100.00
2022-09-09T01:10:51.951Z,100.00
2022-09-09T01:13:25.832Z,100.00
2022-09-09T01:16:01.159Z,100.00
2022-09-09T01:18:35.472Z,100.00
2022-09-09T01:21:09.770Z,100.00
2022-09-09T01:23:55.944Z,100.00
2022-09-09T01:26:30.056Z,100.00
2022-09-09T01:28:57.896Z,100.00
2022-09-09T01:31:30.729Z,100.00
2022-09-09T01:33:58.450Z,100.00
2022-09-09T01:36:31.096Z,100.00
2022-09-09T01:38:59.440Z,100.00
2022-09-09T01:41:29.133Z,100.00
2022-09-09T01:43:57.653Z,100.00
2022-09-09T01:46:25.989Z,100.00
2022-09-09T01:48:55.078Z,100.00
2022-09-09T01:51:23.449Z,100.00
2022-09-09T01:53:51.753Z,100.00
2022-09-09T01:56:35.894Z,100.00
2022-09-09T01:59:16.925Z,100.00
2022-09-09T02:01:59.401Z,100.00
2022-09-09T02:04:38.645Z,100.00
2022-09-09T02:07:18.736Z,100.00
2022-09-09T02:09:52.674Z,100.00
2022-09-09T02:12:26.617Z,100.00
2022-09-09T02:14:58.226Z,100.00
2022-09-09T02:17:30.973Z,100.00
2022-09-09T02:20:06.893Z,100.00
2022-09-09T02:22:37.382Z,100.00
2022-09-09T02:25:07.492Z,100.00
2022-09-09T02:27:36.956Z,100.00
2022-09-09T02:30:06.773Z,100.00
2022-09-09T02:32:37.394Z,100.00
2022-09-09T02:35:11.344Z,100.00
2022-09-09T02:37:42.577Z,100.00
2022-09-09T02:40:14.366Z,100.00
2022-09-09T02:42:44.995Z,100.00
2022-09-09T02:45:16.209Z,100.00
2022-09-09T02:47:50.024Z,100.00
2022-09-09T02:50:21.908Z,100.00
2022-09-09T02:53:02.083Z,100.00
2022-09-09T02:55:39.557Z,100.00
2022-09-09T02:58:12.987Z,100.00
2022-09-09T03:00:42.196Z,100.00
2022-09-09T03:03:11.108Z,100.00
2022-09-09T03:05:39.593Z,100.00
2022-09-09T03:08:08.477Z,100.00
2022-09-09T03:10:37.915Z,100.00
2022-09-09T03:13:06.293Z,100.00
2022-09-09T03:15:36.162Z,100.00
2022-09-09T03:18:04.269Z,100.00
2022-09-09T03:20:32.606Z,100.00
2022-09-09T03:23:02.498Z,100.00
2022-09-09T03:25:30.893Z,100.00
2022-09-09T03:27:58.719Z,100.00
2022-09-09T03:30:28.548Z,100.00
2022-09-09T03:32:58.380Z,100.00
2022-09-09T03:35:26.161Z,100.00
2022-09-09T03:37:55.356Z,100.00
2022-09-09T03:40:24.298Z,100.00
2022-09-09T03:42:52.066Z,100.00
2022-09-09T03:45:20.339Z,100.00
2022-09-09T03:47:48.256Z,100.00
2022-09-09T03:50:17.364Z,100.00
2022-09-09T03:52:45.236Z,100.00
2022-09-09T03:55:13.082Z,100.00
2022-09-09T03:57:40.809Z,100.00
2022-09-09T04:00:10.553Z,100.00
2022-09-09T04:02:38.764Z,100.00
2022-09-09T04:05:07.896Z,100.00
2022-09-09T04:07:37.150Z,100.00
2022-09-09T04:10:05.614Z,100.00
2022-09-09T04:12:33.379Z,100.00
2022-09-09T04:15:03.006Z,100.00
2022-09-09T04:17:31.141Z,100.00
2022-09-09T04:19:59.076Z,100.00
2022-09-09T04:22:27.118Z,100.00
2022-09-09T04:24:56.373Z,100.00
2022-09-09T04:27:24.070Z,100.00
2022-09-09T04:29:52.300Z,100.00
2022-09-09T04:32:20.352Z,100.00
2022-09-09T04:34:49.068Z,100.00
2022-09-09T04:37:17.256Z,100.00
2022-09-09T04:39:46.199Z,100.00
2022-09-09T04:42:15.464Z,100.00
2022-09-09T04:44:43.402Z,100.00
2022-09-09T04:47:11.817Z,100.00
2022-09-09T04:49:40.199Z,100.00
2022-09-09T04:52:08.062Z,100.00
2022-09-09T04:54:36.061Z,100.00
2022-09-09T04:57:03.836Z,100.00
2022-09-09T04:59:33.196Z,100.00
2022-09-09T05:02:01.925Z,100.00
2022-09-09T05:04:32.449Z,100.00
2022-09-09T05:07:00.366Z,100.00
2022-09-09T05:09:28.159Z,100.00
2022-09-09T05:11:56.905Z,100.00
2022-09-09T05:14:25.026Z,100.00
2022-09-09T05:16:54.161Z,100.00
2022-09-09T05:19:21.852Z,100.00
2022-09-09T05:21:50.954Z,100.00
2022-09-09T05:24:19.416Z,100.00
2022-09-09T05:26:47.301Z,100.00
2022-09-09T05:29:15.305Z,100.00
2022-09-09T05:31:43.244Z,100.00
2022-09-09T05:34:12.546Z,100.00
2022-09-09T05:36:40.947Z,100.00
2022-09-09T05:39:08.759Z,100.00
2022-09-09T05:41:36.926Z,100.00
2022-09-09T05:44:05.115Z,100.00
2022-09-09T05:46:33.063Z,100.00
2022-09-09T05:49:01.229Z,100.00
2022-09-09T05:51:31.896Z,100.00
2022-09-09T05:54:00.378Z,100.00
2022-09-09T05:56:29.939Z,100.00
2022-09-09T05:58:58.454Z,100.00
2022-09-09T06:01:28.511Z,100.00
2022-09-09T06:03:56.668Z,100.00
2022-09-09T06:06:27.163Z,100.00
2022-09-09T06:08:58.546Z,100.00
2022-09-09T06:11:28.709Z,100.00
2022-09-09T06:13:56.630Z,100.00
2022-09-09T06:16:26.237Z,100.00
2022-09-09T06:18:55.592Z,100.00
2022-09-09T06:21:25.515Z,100.00
2022-09-09T06:23:56.747Z,100.00
2022-09-09T06:26:29.940Z,100.00
2022-09-09T06:28:58.968Z,100.00
2022-09-09T06:31:31.220Z,100.00
2022-09-09T06:34:00.744Z,100.00
2022-09-09T06:36:29.696Z,100.00
2022-09-09T06:38:58.400Z,100.00
2022-09-09T06:41:30.095Z,100.00
2022-09-09T06:43:58.161Z,100.00
2022-09-09T06:46:28.704Z,100.00
2022-09-09T06:48:59.732Z,100.00
2022-09-09T06:51:29.575Z,100.00
2022-09-09T06:53:59.696Z,100.00
2022-09-09T06:56:30.329Z,100.00
2022-09-09T06:59:01.968Z,100.00
2022-09-09T07:01:31.392Z,100.00
2022-09-09T07:04:00.754Z,100.00
2022-09-09T07:06:30.433Z,100.00
2022-09-09T07:09:00.533Z,100.00
2022-09-09T07:11:31.694Z,100.00
2022-09-09T07:14:01.057Z,100.00
2022-09-09T07:16:30.449Z,100.00
2022-09-09T07:18:58.712Z,100.00
2022-09-09T07:21:28.280Z,100.00
2022-09-09T07:23:56.884Z,100.00
2022-09-09T07:26:26.629Z,100.00
2022-09-09T07:28:56.989Z,100.00
2022-09-09T07:31:27.107Z,100.00
2022-09-09T07:33:55.615Z,100.00
2022-09-09T07:36:26.447Z,100.00
2022-09-09T07:38:58.514Z,100.00
2022-09-09T07:41:28.002Z,100.00
2022-09-09T07:43:57.106Z,100.00
2022-09-09T07:46:27.971Z,100.00
2022-09-09T07:48:57.856Z,100.00
2022-09-09T07:51:28.856Z,100.00
2022-09-09T07:53:59.467Z,100.00
2022-09-09T07:56:28.993Z,100.00
2022-09-09T07:58:59.627Z,100.00
2022-09-09T08:01:30.172Z,100.00
2022-09-09T08:04:01.975Z,100.00
2022-09-09T08:06:32.005Z,100.00
2022-09-09T08:09:00.084Z,100.00
2022-09-09T08:11:33.230Z,100.00
2022-09-09T08:14:05.661Z,100.00
2022-09-09T08:16:37.380Z,100.00
2022-09-09T08:19:06.542Z,100.00
2022-09-09T08:21:35.011Z,100.00
2022-09-09T08:24:03.643Z,100.00
2022-09-09T08:26:33.727Z,100.00
2022-09-09T08:29:03.481Z,100.00
2022-09-09T08:31:35.335Z,100.00
2022-09-09T08:34:04.712Z,100.00
2022-09-09T08:36:35.756Z,100.00
2022-09-09T08:39:04.054Z,100.00
2022-09-09T08:41:55.832Z,100.00
2022-09-09T08:44:36.995Z,100.00
2022-09-09T08:47:17.832Z,100.00
2022-09-09T08:49:57.111Z,100.00
2022-09-09T08:52:30.092Z,100.00
2022-09-09T08:55:04.889Z,100.00
2022-09-09T08:57:34.271Z,100.00
2022-09-09T09:00:02.068Z,100.00
2022-09-09T09:02:41.986Z,100.00
2022-09-09T09:05:21.092Z,100.00
2022-09-09T09:08:01.560Z,100.00
2022-09-09T09:10:44.967Z,100.00
2022-09-09T09:13:17.830Z,100.00
2022-09-09T09:15:50.638Z,100.00
2022-09-09T09:18:20.069Z,100.00
2022-09-09T09:20:56.032Z,100.00
2022-09-09T09:23:27.215Z,100.00
2022-09-09T09:26:01.584Z,100.00
2022-09-09T09:28:32.196Z,100.00
2022-09-09T09:31:05.369Z,100.00
2022-09-09T09:33:41.485Z,100.00
2022-09-09T09:36:10.056Z,100.00
2022-09-09T09:41:36.184Z,100.00
2022-09-09T09:44:05.578Z,100.00
2022-09-09T09:46:34.323Z,95.30
2022-09-09T09:49:06.432Z,89.61
2022-09-09T09:51:36.480Z,91.67
2022-09-09T09:54:27.000Z,93.07
2022-09-09T09:56:55.156Z,96.13
2022-09-09T09:59:41.318Z,91.72
2022-09-09T10:02:17.021Z,90.13
2022-09-09T10:04:47.283Z,89.65
2022-09-09T10:07:20.582Z,92.65
2022-09-09T10:09:54.705Z,89.05
2022-09-09T10:12:33.834Z,94.82
2022-09-09T10:15:07.882Z,98.52
2022-09-09T10:17:51.117Z,98.93
2022-09-09T10:20:33.133Z,99.92
2022-09-09T10:23:22.621Z,100.00
2022-09-09T10:26:14.610Z,100.00
2022-09-09T10:29:00.708Z,100.00
2022-09-09T10:31:40.076Z,100.00
2022-09-09T10:34:20.984Z,100.00
2022-09-09T10:36:52.294Z,96.45
2022-09-09T10:39:39.217Z,88.03
2022-09-09T10:42:14.344Z,84.51
2022-09-09T10:44:58.060Z,83.48
2022-09-09T10:47:44.409Z,81.75
2022-09-09T10:51:00.051Z,80.61
2022-09-09T10:53:37.603Z,78.84
2022-09-09T10:56:10.313Z,79.63
2022-09-09T10:58:44.053Z,74.04
2022-09-09T11:01:18.502Z,76.19
2022-09-09T11:03:52.412Z,73.47
2022-09-09T11:06:23.744Z,69.10
2022-09-09T11:08:57.086Z,69.07
2022-09-09T11:11:32.124Z,64.23
2022-09-09T11:14:06.310Z,64.75
2022-09-09T11:16:43.216Z,61.84
2022-09-09T11:19:19.626Z,67.45
2022-09-09T11:21:50.446Z,65.56
2022-09-09T11:24:24.787Z,66.26
2022-09-09T11:26:58.588Z,65.96
2022-09-09T11:29:46.030Z,65.00
2022-09-09T11:32:33.146Z,72.77
2022-09-09T11:35:09.863Z,74.35
2022-09-09T11:37:56.184Z,73.13
2022-09-09T11:40:27.239Z,72.96
2022-09-09T11:43:07.388Z,66.93
2022-09-09T11:45:37.691Z,62.71
2022-09-09T11:48:07.754Z,61.69
2022-09-09T11:50:38.402Z,59.35
2022-09-09T11:53:21.793Z,62.02
2022-09-09T11:56:06.688Z,54.05
2022-09-09T11:58:39.937Z,53.92
2022-09-09T12:01:35.753Z,53.36
2022-09-09T12:04:30.125Z,59.24
2022-09-09T12:07:01.805Z,57.76
2022-09-09T12:09:35.945Z,58.25
2022-09-09T12:12:09.986Z,57.42
2022-09-09T12:14:40.447Z,58.13
2022-09-09T12:17:20.375Z,54.74
2022-09-09T12:19:49.106Z,58.37
2022-09-09T12:22:28.321Z,56.51
2022-09-09T12:25:06.918Z,54.45
2022-09-09T12:27:47.314Z,56.01
2022-09-09T12:30:18.031Z,57.71
2022-09-09T12:32:46.418Z,61.25
2022-09-09T12:35:22.280Z,57.35
2022-09-09T12:37:54.965Z,57.54
2022-09-09T12:40:24.989Z,61.62
2022-09-09T12:42:56.170Z,60.39
2022-09-09T12:45:27.101Z,57.85
2022-09-09T12:47:59.325Z,56.67
2022-09-09T12:50:31.110Z,55.79
2022-09-09T12:53:01.441Z,56.09
2022-09-09T12:55:34.613Z,54.21
2022-09-09T12:58:06.933Z,52.91
2022-09-09T13:00:37.097Z,53.72
2022-09-09T13:03:18.465Z,50.99
2022-09-09T13:05:47.921Z,52.42
2022-09-09T13:08:20.670Z,53.28
2022-09-09T13:10:56.349Z,56.74
2022-09-09T13:13:30.900Z,59.89
2022-09-09T13:16:00.930Z,60.09
2022-09-09T13:18:31.900Z,58.33
2022-09-09T13:21:00.114Z,55.15
2022-09-09T13:23:31.141Z,57.39
2022-09-09T13:26:01.203Z,56.03
2022-09-09T13:28:33.831Z,52.57
2022-09-09T13:31:04.615Z,56.91
2022-09-09T13:33:35.043Z,55.78
2022-09-09T13:36:05.998Z,54.00
2022-09-09T13:38:37.593Z,54.05
2022-09-09T13:41:08.191Z,52.33
2022-09-09T13:43:40.461Z,53.90
2022-09-09T13:46:33.962Z,52.55
2022-09-09T13:49:03.623Z,55.44
2022-09-09T13:51:37.988Z,57.14
2022-09-09T13:54:07.349Z,55.60
2022-09-09T13:56:36.177Z,57.09
2022-09-09T13:59:07.417Z,56.11
2022-09-09T14:01:35.870Z,58.45
2022-09-09T14:04:04.340Z,62.19
2022-09-09T14:06:33.153Z,58.01
2022-09-09T14:09:01.212Z,59.58
2022-09-09T14:11:29.453Z,59.17
2022-09-09T14:13:57.172Z,62.14
2022-09-09T14:16:28.737Z,64.33
2022-09-09T14:18:58.161Z,59.57
2022-09-09T14:21:26.237Z,58.72
2022-09-09T14:23:54.602Z,56.55
2022-09-09T14:26:24.475Z,59.25
2022-09-09T14:28:55.443Z,55.76
2022-09-09T14:31:27.081Z,59.74
2022-09-09T14:33:55.245Z,55.52
2022-09-09T14:36:23.813Z,58.49
2022-09-09T14:38:52.913Z,58.27
2022-09-09T14:41:23.525Z,60.14
2022-09-09T14:43:52.571Z,55.57
2022-09-09T14:46:22.149Z,58.24
2022-09-09T14:48:51.928Z,60.02
2022-09-09T14:51:23.106Z,60.55
2022-09-09T14:53:53.808Z,58.74
2022-09-09T14:56:24.049Z,59.19
2022-09-09T14:58:53.301Z,58.03
2022-09-09T15:01:23.173Z,60.87
2022-09-09T15:03:55.122Z,60.72
2022-09-09T15:06:24.232Z,58.51
2022-09-09T15:08:53.213Z,56.68
2022-09-09T15:11:23.693Z,56.02
2022-09-09T15:13:54.039Z,54.23
2022-09-09T15:16:24.149Z,54.41
2022-09-09T15:18:55.732Z,53.92
2022-09-09T15:21:25.294Z,55.42
2022-09-09T15:23:53.757Z,52.52
2022-09-09T15:26:21.829Z,50.55
2022-09-09T15:28:51.689Z,52.23
2022-09-09T15:31:21.585Z,53.95
2022-09-09T15:33:50.349Z,53.90
2022-09-09T15:36:21.670Z,56.09
2022-09-09T15:38:50.725Z,54.99
2022-09-09T15:41:19.868Z,54.21
2022-09-09T15:43:49.683Z,53.59
2022-09-09T15:46:28.124Z,52.41
2022-09-09T15:48:58.041Z,53.05
2022-09-09T15:51:42.234Z,54.81
2022-09-09T15:54:13.320Z,54.91
2022-09-09T15:56:41.908Z,55.55
2022-09-09T15:59:09.831Z,55.38
2022-09-09T16:01:37.911Z,56.85
2022-09-09T16:04:06.307Z,56.85
2022-09-09T16:06:35.781Z,61.27
2022-09-09T16:09:06.211Z,62.38
2022-09-09T16:11:36.604Z,64.60
2022-09-09T16:14:06.292Z,67.10
2022-09-09T16:16:35.994Z,68.59
2022-09-09T16:19:07.301Z,68.71
2022-09-09T16:21:40.605Z,71.02
2022-09-09T16:24:10.504Z,71.97
2022-09-09T16:26:40.132Z,75.00
2022-09-09T16:29:09.706Z,77.32
2022-09-09T16:31:38.752Z,74.39
2022-09-09T16:34:06.657Z,74.87
2022-09-09T16:36:37.765Z,76.53
2022-09-09T16:39:06.949Z,78.75
2022-09-09T16:41:35.501Z,83.39
2022-09-09T16:44:05.399Z,86.08
2022-09-09T16:46:36.386Z,83.68
2022-09-09T16:49:07.053Z,83.32
2022-09-09T16:51:38.816Z,83.15
2022-09-09T16:54:08.926Z,83.94
2022-09-09T16:56:42.089Z,85.98
2022-09-09T16:59:11.833Z,85.88
2022-09-09T17:01:42.415Z,89.26
2022-09-09T17:04:14.125Z,88.32
2022-09-09T17:06:43.774Z,88.66
2022-09-09T17:09:13.913Z,88.58
2022-09-09T17:11:42.370Z,89.79
2022-09-09T17:14:14.972Z,89.52
2022-09-09T17:16:42.756Z,91.10
2022-09-09T17:19:11.673Z,92.53
2022-09-09T17:21:59.902Z,90.81
2022-09-09T17:24:30.236Z,91.61
2022-09-09T17:26:58.812Z,94.10
2022-09-09T17:29:26.631Z,94.42
2022-09-09T17:31:54.727Z,93.76
2022-09-09T17:34:22.794Z,95.04
2022-09-09T17:36:50.690Z,94.00
2022-09-09T17:39:18.445Z,96.01
2022-09-09T17:41:47.758Z,96.21
2022-09-09T17:44:15.780Z,99.75
2022-09-09T17:46:46.319Z,97.70
2022-09-09T17:49:16.771Z,97.70
2022-09-09T17:51:46.305Z,97.62
2022-09-09T17:54:15.874Z,95.51
2022-09-09T17:56:44.935Z,93.31
2022-09-09T17:59:18.625Z,98.14
2022-09-09T18:01:50.979Z,95.73
2022-09-09T18:04:19.821Z,94.81
2022-09-09T18:06:49.461Z,97.80
2022-09-09T18:09:18.657Z,100.00
2022-09-09T18:11:49.222Z,100.00
2022-09-09T18:14:20.558Z,100.00
2022-09-09T18:16:48.691Z,100.00
2022-09-09T18:19:19.872Z,100.00
2022-09-09T18:21:49.138Z,100.00
2022-09-09T18:24:19.194Z,100.00
2022-09-09T18:26:48.239Z,100.00
2022-09-09T18:29:20.835Z,100.00
2022-09-09T18:31:49.694Z,100.00
2022-09-09T18:34:19.265Z,100.00
2022-09-09T18:36:49.399Z,100.00
2022-09-09T18:39:19.333Z,100.00
2022-09-09T18:41:48.964Z,100.00
2022-09-09T18:44:20.765Z,100.00
2022-09-09T18:46:50.402Z,100.00
2022-09-09T18:49:18.188Z,100.00
2022-09-09T18:51:46.874Z,100.00
2022-09-09T18:54:17.433Z,100.00
2022-09-09T18:56:45.520Z,100.00
2022-09-09T18:59:15.365Z,100.00
2022-09-09T19:01:45.329Z,100.00
2022-09-09T19:04:13.418Z,100.00
2022-09-09T19:06:42.830Z,100.00
2022-09-09T19:09:11.757Z,100.00
2022-09-09T19:11:40.304Z,100.00
2022-09-09T19:14:11.513Z,100.00
2022-09-09T19:16:40.439Z,100.00
2022-09-09T19:19:13.365Z,100.00
2022-09-09T19:21:42.454Z,100.00
2022-09-09T19:24:14.287Z,100.00
2022-09-09T19:26:43.956Z,100.00
2022-09-09T19:29:15.281Z,100.00
2022-09-09T19:32:01.915Z,100.00
2022-09-09T19:34:33.511Z,100.00
2022-09-09T19:37:01.609Z,100.00
2022-09-09T19:39:29.477Z,100.00
2022-09-09T19:41:57.301Z,100.00
2022-09-09T19:44:25.704Z,100.00
2022-09-09T19:46:53.472Z,100.00
2022-09-09T19:49:21.331Z,100.00
2022-09-09T19:51:50.660Z,100.00
2022-09-09T19:54:18.525Z,100.00
2022-09-09T19:56:46.678Z,100.00
2022-09-09T19:59:15.719Z,100.00
2022-09-09T20:01:45.530Z,100.00
2022-09-09T20:04:17.194Z,100.00
2022-09-09T20:06:45.530Z,100.00
2022-09-09T20:09:18.237Z,100.00
2022-09-09T20:11:48.051Z,100.00
2022-09-09T20:14:17.097Z,100.00
2022-09-09T20:16:45.801Z,100.00
2022-09-09T20:19:16.086Z,100.00
2022-09-09T20:21:47.861Z,100.00
2022-09-09T20:24:19.734Z,100.00
2022-09-09T20:26:49.103Z,100.00
2022-09-09T20:29:19.810Z,100.00
2022-09-09T20:31:48.516Z,100.00
2022-09-09T20:34:18.686Z,100.00
2022-09-09T20:36:48.433Z,100.00
2022-09-09T20:39:19.865Z,100.00
2022-09-09T20:41:48.341Z,100.00
2022-09-09T20:44:18.196Z,100.00
2022-09-09T20:46:48.873Z,100.00
2022-09-09T20:49:17.989Z,100.00
2022-09-09T20:51:47.554Z,100.00
2022-09-09T20:54:18.768Z,100.00
2022-09-09T20:56:48.055Z,100.00
2022-09-09T20:59:17.983Z,100.00
2022-09-09T21:01:47.582Z,100.00
2022-09-09T21:04:18.715Z,100.00
2022-09-09T21:06:47.100Z,100.00
2022-09-09T21:09:15.179Z,100.00
2022-09-09T21:11:44.470Z,100.00
2022-09-09T21:14:12.556Z,100.00
2022-09-09T21:16:40.347Z,100.00
2022-09-09T21:19:08.053Z,100.00
2022-09-09T21:21:36.236Z,100.00
2022-09-09T21:24:04.523Z,100.00
2022-09-09T21:26:32.378Z,100.00
2022-09-09T21:29:01.844Z,100.00
2022-09-09T21:31:29.883Z,100.00
2022-09-09T21:33:57.670Z,100.00
2022-09-09T21:36:28.108Z,100.00
2022-09-09T21:38:55.889Z,100.00
2022-09-09T21:41:24.190Z,100.00
2022-09-09T21:43:53.927Z,100.00
2022-09-09T21:46:26.469Z,100.00
2022-09-09T21:48:56.629Z,100.00
2022-09-09T21:51:26.373Z,100.00
2022-09-09T21:53:57.023Z,100.00
2022-09-09T21:56:26.611Z,100.00
2022-09-09T21:58:58.464Z,100.00
2022-09-09T22:01:27.909Z,100.00
2022-09-09T22:03:56.273Z,100.00
2022-09-09T22:06:24.072Z,100.00
2022-09-09T22:08:52.136Z,100.00
2022-09-09T22:11:22.154Z,100.00
2022-09-09T22:13:50.634Z,100.00
2022-09-09T22:16:21.381Z,100.00
2022-09-09T22:18:53.735Z,100.00
2022-09-09T22:21:21.959Z,100.00
2022-09-09T22:23:54.060Z,100.00
2022-09-09T22:26:23.032Z,100.00
2022-09-09T22:28:51.725Z,100.00
2022-09-09T22:31:20.808Z,100.00
2022-09-09T22:33:49.273Z,100.00
2022-09-09T22:36:19.739Z,100.00
2022-09-09T22:38:47.929Z,100.00
2022-09-09T22:41:17.009Z,100.00
2022-09-09T22:43:45.454Z,100.00
2022-09-09T22:46:13.882Z,100.00
2022-09-09T22:48:42.071Z,100.00
2022-09-09T22:51:12.430Z,100.00
2022-09-09T22:53:42.816Z,100.00
2022-09-09T22:56:15.285Z,100.00
2022-09-09T22:58:43.158Z,100.00
2022-09-09T23:01:15.442Z,100.00
2022-09-09T23:03:46.093Z,100.00
2022-09-09T23:06:21.969Z,100.00
2022-09-09T23:08:55.651Z,100.00
2022-09-09T23:11:26.324Z,100.00
2022-09-09T23:13:55.937Z,100.00
2022-09-09T23:16:25.788Z,100.00
2022-09-09T23:18:55.478Z,100.00
2022-09-09T23:21:26.138Z,100.00
2022-09-09T23:23:57.749Z,100.00
2022-09-09T23:26:27.081Z,100.00
2022-09-09T23:28:58.358Z,100.00
2022-09-09T23:31:27.691Z,100.00
2022-09-09T23:33:57.996Z,100.00
2022-09-09T23:36:29.441Z,100.00
2022-09-09T23:38:59.685Z,100.00
2022-09-09T23:41:28.072Z,100.00
2022-09-09T23:43:57.661Z,100.00
2022-09-09T23:46:28.483Z,100.00
2022-09-09T23:48:58.206Z,100.00
2022-09-09T23:51:30.501Z,100.00
2022-09-09T23:54:02.871Z,100.00
2022-09-09T23:56:33.883Z,100.00
2022-09-09T23:59:02.271Z,100.00
